TimeEDT,TemperatureF,Dew PointF,Humidity,Sea Level PressureIn,VisibilityMPH,Wind Direction,Wind SpeedMPH,Gust SpeedMPH,PrecipitationIn,Events,Conditions,WindDirDegrees,DateUTC
12:54 AM,64.0,57.0,78,29.95,10.0,WSW,3.5,-,N/A,,Clear,240,2013-06-15 04:54:00
1:54 AM,62.1,57.0,84,29.95,10.0,WSW,5.8,-,N/A,,Clear,240,2013-06-15 05:54:00
2:54 AM,63.0,57.0,81,29.96,10.0,WSW,3.5,-,N/A,,Clear,240,2013-06-15 06:54:00
3:54 AM,61.0,54.0,78,29.96,10.0,WSW,4.6,-,N/A,,Clear,240,2013-06-15 07:54:00
4:54 AM,61.0,53.1,75,29.96,10.0,WSW,4.6,-,N/A,,Clear,240,2013-06-15 08:54:00
5:54 AM,61.0,53.1,75,29.99,10.0,Calm,Calm,-,N/A,,Clear,0,2013-06-15 09:54:00
6:54 AM,66.0,54.0,65,30.00,10.0,NW,3.5,-,N/A,,Clear,320,2013-06-15 10:54:00
7:54 AM,69.1,55.0,61,30.02,10.0,NNW,5.8,-,N/A,,Clear,330,2013-06-15 11:54:00
8:54 AM,72.0,55.0,55,30.04,10.0,WNW,6.9,-,N/A,,Partly Cloudy,300,2013-06-15 12:54:00
9:54 AM,73.9,55.0,52,30.04,10.0,WNW,4.6,-,N/A,,Partly Cloudy,290,2013-06-15 13:54:00
10:54 AM,75.9,55.0,48,30.04,10.0,Variable,6.9,-,N/A,,Scattered Clouds,0,2013-06-15 14:54:00
11:54 AM,77.0,55.0,47,30.02,10.0,Variable,6.9,-,N/A,,Scattered Clouds,0,2013-06-15 15:54:00
12:54 PM,80.1,52.0,38,30.01,10.0,West,10.4,16.1,N/A,,Scattered Clouds,280,2013-06-15 16:54:00
1:54 PM,81.0,50.0,34,29.99,10.0,WNW,11.5,19.6,N/A,,Scattered Clouds,290,2013-06-15 17:54:00
2:54 PM,80.1,51.1,36,29.99,10.0,NW,6.9,-,N/A,,Scattered Clouds,310,2013-06-15 18:54:00
3:54 PM,82.0,51.1,34,29.97,10.0,WNW,12.7,21.9,N/A,,Mostly Cloudy,290,2013-06-15 19:54:00
4:54 PM,82.0,51.1,34,29.97,10.0,West,15.0,-,N/A,,Mostly Cloudy,260,2013-06-15 20:54:00
5:54 PM,82.0,51.1,34,29.97,10.0,West,12.7,19.6,N/A,,Mostly Cloudy,260,2013-06-15 21:54:00
6:54 PM,81.0,52.0,36,29.97,10.0,WNW,12.7,-,N/A,,Mostly Cloudy,290,2013-06-15 22:54:00
7:54 PM,80.1,52.0,38,29.98,10.0,West,10.4,-,N/A,,Mostly Cloudy,280,2013-06-15 23:54:00
8:54 PM,78.1,51.1,39,29.98,10.0,WNW,9.2,-,N/A,,Mostly Cloudy,290,2013-06-16 00:54:00
9:54 PM,73.9,53.1,48,30.00,10.0,WSW,6.9,-,N/A,,Mostly Cloudy,250,2013-06-16 01:54:00
10:54 PM,71.1,55.9,59,30.01,10.0,WSW,4.6,-,N/A,,Scattered Clouds,240,2013-06-16 02:54:00
11:54 PM,69.1,55.9,63,30.01,10.0,WSW,3.5,-,N/A,,Scattered Clouds,240,2013-06-16 03:54:00